Time;durP1;ratioP1;P1;durP2;ratioP2;P2;SDS_P1;SDS_P2;PMS_P1;PMS_P2;Temp;Humidity;BMP_temperature;BMP_pressure;BME280_temperature;BME280_humidity;BME280_pressure;Samples;Min_cycle;Max_cycle;Signal;HPM_P1;HPM_P2
2022/12/08 00:00:11;;;;;;;13.35;8.08;;;;;;;4.82;68.47;100447.30;1745379;82;21075;-67
2022/12/08 00:02:43;;;;;;;12.30;7.72;;;;;;;4.82;68.41;100453.92;1731941;82;21099;-66
2022/12/08 00:10:35;;;;;;;12.43;7.72;;;;;;;4.85;68.19;100454.80;1727413;82;21335;-67
2022/12/08 00:13:01;;;;;;;11.40;7.20;;;;;;;4.86;68.23;100461.70;1697830;82;21054;-67
2022/12/08 00:15:30;;;;;;;12.55;7.50;;;;;;;4.90;68.21;100455.45;1718642;82;21581;-67
2022/12/08 00:17:57;;;;;;;10.93;6.78;;;;;;;4.89;68.09;100455.16;1740178;82;21134;-66
2022/12/08 00:20:24;;;;;;;10.63;6.58;;;;;;;4.89;68.07;100461.27;1717481;82;21051;-67
2022/12/08 00:22:50;;;;;;;12.00;7.60;;;;;;;4.90;67.97;100457.61;1736806;81;21261;-67
2022/12/08 00:25:17;;;;;;;10.43;6.60;;;;;;;4.85;68.00;100456.12;1709042;82;21526;-67
2022/12/08 00:27:43;;;;;;;10.25;6.28;;;;;;;4.87;68.11;100454.56;1728372;81;21111;-67
2022/12/08 00:30:11;;;;;;;10.05;6.90;;;;;;;4.90;68.09;100462.91;1710830;82;21086;-67
2022/12/08 00:32:39;;;;;;;11.85;6.75;;;;;;;4.93;68.18;100473.53;1699752;82;21051;-67
2022/12/08 00:35:07;;;;;;;11.95;6.70;;;;;;;4.98;68.20;100469.72;1727644;82;21250;-67
2022/12/08 00:37:33;;;;;;;11.35;7.00;;;;;;;5.02;68.18;100466.11;1745635;82;21641;-67
2022/12/08 00:40:02;;;;;;;11.20;6.92;;;;;;;5.05;68.10;100457.20;1724500;82;21091;-67
2022/12/08 00:42:29;;;;;;;11.28;7.45;;;;;;;5.08;68.04;100457.28;1744430;82;21043;-67
2022/12/08 00:44:55;;;;;;;13.70;7.33;;;;;;;5.11;68.01;100458.16;1708284;83;21102;-67
2022/12/08 00:47:22;;;;;;;10.48;6.85;;;;;;;5.15;67.97;100456.68;1697659;82;21166;-67
2022/12/08 00:49:49;;;;;;;10.13;6.92;;;;;;;5.16;67.80;100456.96;1722404;82;21546;-67
2022/12/08 00:52:16;;;;;;;9.68;6.42;;;;;;;5.13;67.69;100455.59;1713627;82;21035;-67
2022/12/08 00:54:43;;;;;;;15.63;8.18;;;;;;;5.12;67.61;100458.45;1745264;82;21055;-67
2022/12/08 00:57:11;;;;;;;9.88;6.58;;;;;;;5.10;67.61;100456.04;1731169;82;21640;-67
2022/12/08 00:59:38;;;;;;;10.63;7.40;;;;;;;5.09;67.65;100457.05;1735147;81;21659;-67
2022/12/08 01:02:05;;;;;;;10.20;7.15;;;;;;;5.10;67.60;100450.74;1731288;82;21032;-67
2022/12/08 01:04:32;;;;;;;9.93;6.90;;;;;;;5.08;67.54;100450.67;1737147;82;21150;-67
2022/12/08 01:06:58;;;;;;;11.15;7.37;;;;;;;5.09;67.58;100455.73;1724033;82;21075;-67
2022/12/08 01:09:25;;;;;;;9.95;7.12;;;;;;;5.10;67.58;100465.80;1716385;83;21083;-67
2022/12/08 01:11:51;;;;;;;11.35;7.60;;;;;;;5.10;67.66;100467.12;1712130;83;21278;-67
2022/12/08 01:14:18;;;;;;;10.38;7.00;;;;;;;5.13;67.65;100470.64;1712994;83;21107;-67
2022/12/08 01:16:44;;;;;;;12.00;7.33;;;;;;;5.16;67.59;100476.82;1722814;82;21038;-67
2022/12/08 01:19:14;;;;;;;9.80;7.25;;;;;;;5.15;67.48;100479.19;1717740;82;21584;-67
2022/12/08 01:21:41;;;;;;;10.38;6.90;;;;;;;5.15;67.34;100475.22;1744934;81;21110;-67
2022/12/08 01:24:11;;;;;;;10.58;6.72;;;;;;;5.14;67.44;100477.58;1690088;83;21924;-66
2022/12/08 01:26:38;;;;;;;9.08;6.37;;;;;;;5.16;67.46;100486.89;1745632;80;21023;-67
2022/12/08 01:29:05;;;;;;;9.68;6.67;;;;;;;5.15;67.48;100480.52;1701351;83;21099;-67
2022/12/08 01:31:32;;;;;;;9.55;5.67;;;;;;;5.13;67.46;100487.86;1724980;82;21099;-67
2022/12/08 01:33:59;;;;;;;8.05;6.08;;;;;;;5.08;67.43;100490.38;1740840;82;21059;-67
2022/12/08 01:36:28;;;;;;;9.80;6.62;;;;;;;5.00;67.45;100493.31;1721606;82;21154;-67
2022/12/08 01:38:57;;;;;;;9.58;6.62;;;;;;;4.99;67.59;100492.50;1727405;82;21553;-68
2022/12/08 01:41:27;;;;;;;9.38;6.70;;;;;;;5.04;67.69;100498.48;1723709;82;21047;-67
2022/12/08 01:44:13;;;;;;;9.85;7.20;;;;;;;5.07;67.73;100497.52;1745316;82;21036;-67
2022/12/08 01:46:42;;;;;;;10.43;6.83;;;;;;;5.07;67.68;100492.74;1730980;82;21118;-67
2022/12/08 01:49:24;;;;;;;8.30;6.22;;;;;;;5.07;67.67;100492.74;1732120;82;21170;-67
2022/12/08 01:52:05;;;;;;;9.60;6.72;;;;;;;5.10;67.63;100497.56;1711062;82;21074;-68
2022/12/08 01:54:35;;;;;;;9.45;6.58;;;;;;;5.08;67.55;100499.64;1608840;81;9999842;-68
2022/12/08 01:57:09;;;;;;;8.98;5.92;;;;;;;5.02;67.58;100490.73;1745060;82;21114;-67
2022/12/08 01:59:43;;;;;;;9.50;6.72;;;;;;;4.99;67.59;100499.64;1731273;82;21114;-67
2022/12/08 02:02:10;;;;;;;9.80;6.50;;;;;;;4.92;67.53;100512.44;1745168;82;21103;-67
2022/12/08 02:04:36;;;;;;;8.63;6.30;;;;;;;4.97;67.44;100513.60;1729060;81;21063;-67
2022/12/08 02:07:04;;;;;;;9.55;7.30;;;;;;;4.87;67.54;100518.91;1729095;82;21047;-67
2022/12/08 02:09:30;;;;;;;9.15;6.45;;;;;;;4.84;67.70;100518.03;1716041;82;21027;-69
2022/12/08 02:11:57;;;;;;;10.70;7.37;;;;;;;4.84;67.76;100514.06;1711898;82;21099;-69
2022/12/08 02:14:24;;;;;;;9.45;6.78;;;;;;;4.83;67.73;100520.88;1732809;82;21550;-68
2022/12/08 02:17:11;;;;;;;9.93;7.22;;;;;;;4.83;67.74;100523.01;1724103;82;21601;-68
2022/12/08 02:20:10;;;;;;;9.48;7.12;;;;;;;4.85;67.77;100520.97;1717554;83;21114;-69
2022/12/08 02:22:51;;;;;;;9.18;6.50;;;;;;;4.88;67.73;100527.14;1741260;80;21098;-69
2022/12/08 02:25:45;;;;;;;10.55;7.62;;;;;;;4.87;67.86;100526.86;1687036;82;21168;-69
2022/12/08 02:29:09;;;;;;;9.43;7.25;;;;;;;4.85;67.78;100526.77;1744834;82;21019;-69
2022/12/08 02:32:14;;;;;;;9.83;7.50;;;;;;;4.75;67.66;100528.60;1731038;82;22123;-69
2022/12/08 02:35:19;;;;;;;10.32;7.90;;;;;;;4.75;67.83;100521.98;1741424;82;21039;-68
2022/12/08 02:37:58;;;;;;;10.23;6.92;;;;;;;4.72;68.02;100518.45;1702916;83;21023;-68
2022/12/08 02:40:35;;;;;;;10.60;7.65;;;;;;;4.69;68.11;100521.53;1744153;82;21241;-69
2022/12/08 02:43:18;;;;;;;9.78;7.10;;;;;;;4.70;68.13;100525.30;1697412;82;21032;-68
2022/12/08 02:45:54;;;;;;;10.55;7.15;;;;;;;4.74;68.14;100520.38;1728389;82;21692;-69
2022/12/08 02:48:21;;;;;;;10.28;7.67;;;;;;;4.73;68.11;100520.58;1731713;82;21123;-68
2022/12/08 02:50:47;;;;;;;10.45;7.42;;;;;;;4.78;68.19;100525.52;1745640;82;21107;-68
2022/12/08 02:53:14;;;;;;;9.53;6.87;;;;;;;4.81;68.10;100534.34;1719780;81;21145;-69
2022/12/08 02:55:55;;;;;;;10.88;8.15;;;;;;;4.80;68.05;100524.77;1736319;81;21554;-68
2022/12/08 02:58:48;;;;;;;10.23;7.47;;;;;;;4.79;67.99;100517.87;1723300;82;21174;-68
2022/12/08 03:01:39;;;;;;;9.65;6.90;;;;;;;4.81;67.87;100518.98;1713921;83;22267;-69
2022/12/08 03:04:20;;;;;;;9.55;6.78;;;;;;;4.77;67.84;100520.43;1729328;82;21044;-69
2022/12/08 03:06:55;;;;;;;9.70;7.35;;;;;;;4.70;67.84;100524.47;1731782;82;21287;-70
2022/12/08 03:09:46;;;;;;;11.43;8.18;;;;;;;4.66;67.87;100536.52;1724496;82;21042;-68
2022/12/08 03:12:39;;;;;;;10.68;7.70;;;;;;;4.64;67.86;100538.08;1647227;85;21090;-69
2022/12/08 03:15:13;;;;;;;10.70;7.70;;;;;;;4.66;67.87;100542.62;1736907;82;21055;-69
2022/12/08 03:17:43;;;;;;;9.53;6.78;;;;;;;4.64;67.89;100538.56;1725953;82;21158;-69
2022/12/08 03:20:14;;;;;;;11.75;7.72;;;;;;;4.68;68.04;100544.54;1742118;81;21541;-69
2022/12/08 03:22:41;;;;;;;9.80;7.28;;;;;;;4.69;67.97;100551.96;1743798;82;21000;-69
2022/12/08 03:25:09;;;;;;;8.98;6.45;;;;;;;4.73;68.00;100548.36;1745372;82;21039;-69
2022/12/08 03:27:36;;;;;;;9.80;7.05;;;;;;;4.72;67.86;100551.53;1728999;80;21039;-69
2022/12/08 03:30:05;;;;;;;9.90;7.67;;;;;;;4.66;67.89;100547.11;1740802;82;21048;-69
2022/12/08 03:32:52;;;;;;;9.90;7.83;;;;;;;4.63;67.99;100538.28;1733890;80;21083;-68
2022/12/08 03:35:29;;;;;;;10.43;8.05;;;;;;;4.67;68.11;100536.32;1726316;82;21047;-68
2022/12/08 03:38:08;;;;;;;9.08;6.97;;;;;;;4.70;68.07;100532.41;1745415;82;21066;-68
2022/12/08 03:40:34;;;;;;;9.18;6.78;;;;;;;4.73;68.03;100539.91;1743780;81;21015;-68
2022/12/08 03:43:01;;;;;;;11.15;8.38;;;;;;;4.76;67.97;100547.41;1744729;82;21537;-66
2022/12/08 03:45:28;;;;;;;11.00;8.18;;;;;;;4.76;67.92;100541.31;1745455;82;21865;-68
2022/12/08 03:47:55;;;;;;;9.55;6.95;;;;;;;4.75;67.88;100545.80;1744029;82;21031;-68
2022/12/08 03:50:22;;;;;;;11.38;8.05;;;;;;;4.74;67.78;100548.16;1731499;81;21142;-66
2022/12/08 03:52:48;;;;;;;9.43;7.22;;;;;;;4.70;67.69;100549.59;1727027;82;21125;-67
2022/12/08 03:55:15;;;;;;;10.68;7.40;;;;;;;4.67;67.70;100556.65;1745169;82;21104;-68
2022/12/08 03:57:42;;;;;;;11.43;8.65;;;;;;;4.63;67.73;100558.12;1744937;82;21109;-67
2022/12/08 04:00:12;;;;;;;12.25;8.88;;;;;;;4.63;67.86;100550.18;1743972;82;21044;-67
2022/12/08 04:02:39;;;;;;;12.28;8.95;;;;;;;4.68;67.95;100547.70;1691564;82;21098;-68
2022/12/08 04:05:08;;;;;;;9.73;7.53;;;;;;;4.69;67.92;100547.99;1745390;82;21060;-68
2022/12/08 04:07:34;;;;;;;11.57;7.70;;;;;;;4.70;67.87;100545.63;1742671;82;21146;-68
2022/12/08 04:10:01;;;;;;;9.90;7.30;;;;;;;4.69;67.79;100545.34;1732718;82;21523;-68
2022/12/08 04:12:28;;;;;;;10.35;7.58;;;;;;;4.65;67.75;100552.11;1736522;82;22248;-68
2022/12/08 04:14:55;;;;;;;11.65;8.70;;;;;;;4.59;67.74;100557.75;1714126;82;21103;-68
2022/12/08 04:17:22;;;;;;;11.65;8.30;;;;;;;4.55;67.79;100561.05;1744833;81;21043;-67
2022/12/08 04:19:48;;;;;;;10.90;7.97;;;;;;;4.55;67.79;100561.05;1743539;82;21149;-68
2022/12/08 04:22:15;;;;;;;11.08;8.70;;;;;;;4.56;67.89;100563.98;1745013;82;21282;-68
2022/12/08 04:24:44;;;;;;;10.60;8.35;;;;;;;4.53;67.86;100568.38;1741988;82;21063;-68
2022/12/08 04:27:12;;;;;;;12.23;9.00;;;;;;;4.52;67.86;100565.45;1724427;82;21662;-68
2022/12/08 04:29:39;;;;;;;11.38;8.38;;;;;;;4.51;67.77;100571.27;1738518;82;22020;-68
2022/12/08 04:32:05;;;;;;;11.38;8.53;;;;;;;4.48;67.69;100575.66;1745181;82;21098;-68
2022/12/08 04:34:32;;;;;;;10.88;8.55;;;;;;;4.44;67.69;100573.95;1745247;82;21149;-68
2022/12/08 04:36:59;;;;;;;11.33;8.85;;;;;;;4.44;67.78;100577.09;1732062;80;21051;-68
2022/12/08 04:39:26;;;;;;;10.75;8.18;;;;;;;4.49;67.87;100583.08;1744725;82;21079;-68
2022/12/08 04:41:53;;;;;;;11.90;9.13;;;;;;;4.41;68.04;100575.71;1735503;82;21186;-68
2022/12/08 04:44:19;;;;;;;10.58;8.00;;;;;;;4.37;68.16;100582.95;1731778;82;21107;-69
2022/12/08 04:46:46;;;;;;;10.50;8.65;;;;;;;4.49;68.03;100590.49;1743193;82;21248;-69
2022/12/08 04:49:12;;;;;;;11.63;8.90;;;;;;;4.54;67.90;100590.67;1733105;81;21439;-68
2022/12/08 04:51:39;;;;;;;12.47;8.70;;;;;;;4.56;67.85;100589.12;1743740;82;22152;-68
2022/12/08 04:54:05;;;;;;;12.35;9.00;;;;;;;4.58;67.78;100595.81;1743945;82;21035;-68
2022/12/08 04:56:32;;;;;;;11.38;8.68;;;;;;;4.59;67.74;100599.27;1745290;82;21117;-68
2022/12/08 04:58:58;;;;;;;13.40;9.58;;;;;;;4.59;67.72;100597.94;1732258;82;21151;-69
2022/12/08 05:01:25;;;;;;;11.18;8.28;;;;;;;4.60;67.65;100603.00;1744926;82;21100;-68
2022/12/08 05:03:51;;;;;;;12.13;9.00;;;;;;;4.62;67.64;100608.09;1745094;82;21046;-68
2022/12/08 05:06:18;;;;;;;10.95;7.95;;;;;;;4.57;67.51;100609.24;1721652;80;21047;-68
2022/12/08 05:08:45;;;;;;;13.13;9.48;;;;;;;4.54;67.53;100609.67;1734249;82;21129;-68
2022/12/08 05:11:12;;;;;;;12.55;9.60;;;;;;;4.50;67.54;100608.48;1735556;82;21149;-68
2022/12/08 05:13:39;;;;;;;12.15;9.08;;;;;;;4.53;67.59;100606.73;1725674;82;21051;-67
2022/12/08 05:16:08;;;;;;;13.72;10.48;;;;;;;4.54;67.64;100608.34;1723236;82;21096;-67
2022/12/08 05:18:36;;;;;;;13.43;9.95;;;;;;;4.52;67.66;100615.19;1745538;82;20968;-68
2022/12/08 05:21:05;;;;;;;14.63;10.50;;;;;;;4.52;67.73;100617.03;1746286;82;20984;-68
2022/12/08 05:23:32;;;;;;;14.85;10.28;;;;;;;4.56;67.70;100624.83;1743324;82;21218;-68
2022/12/08 05:26:00;;;;;;;12.50;9.15;;;;;;;4.59;67.69;100628.36;1734027;82;21104;-68
2022/12/08 05:28:26;;;;;;;12.03;9.10;;;;;;;4.57;67.53;100621.95;1743575;82;21967;-68
2022/12/08 05:30:53;;;;;;;13.50;9.80;;;;;;;4.48;67.47;100631.72;1744337;82;21601;-69
2022/12/08 05:33:21;;;;;;;11.53;7.87;;;;;;;4.41;67.49;100632.57;1740984;82;21098;-68
2022/12/08 05:35:48;;;;;;;12.65;9.00;;;;;;;4.35;67.54;100632.10;1744090;82;21854;-68
2022/12/08 05:38:14;;;;;;;11.85;8.80;;;;;;;4.25;67.53;100638.38;1743433;80;22232;-69
2022/12/08 05:40:43;;;;;;;13.00;9.53;;;;;;;4.19;67.70;100643.98;1728795;82;21064;-69
2022/12/08 05:43:10;;;;;;;12.88;9.63;;;;;;;4.16;67.83;100640.45;1739174;80;21683;-69
2022/12/08 05:45:36;;;;;;;13.70;9.50;;;;;;;4.14;67.95;100640.35;1723132;82;21585;-69
2022/12/08 05:48:04;;;;;;;12.00;9.05;;;;;;;4.14;68.07;100643.00;1724691;82;21142;-68
2022/12/08 05:50:31;;;;;;;14.50;10.50;;;;;;;4.14;68.17;100641.16;1729480;82;21040;-68
2022/12/08 05:52:58;;;;;;;13.88;9.50;;;;;;;4.21;68.23;100643.77;1719921;81;21054;-67
2022/12/08 05:55:24;;;;;;;13.00;9.55;;;;;;;4.27;68.24;100644.23;1731302;82;21653;-67
2022/12/08 05:57:51;;;;;;;13.32;9.15;;;;;;;4.29;68.13;100650.13;1714072;82;21508;-69
2022/12/08 06:00:20;;;;;;;13.90;10.25;;;;;;;4.29;68.17;100644.84;1747203;81;21222;-68
2022/12/08 06:02:47;;;;;;;14.07;9.90;;;;;;;4.30;68.18;100647.78;1716502;82;21395;-68
2022/12/08 06:05:14;;;;;;;14.07;10.03;;;;;;;4.33;68.14;100646.03;1716895;82;21557;-69
2022/12/08 06:07:40;;;;;;;14.13;9.53;;;;;;;4.36;68.09;100644.29;1716642;82;21059;-68
2022/12/08 06:10:09;;;;;;;14.33;10.08;;;;;;;4.42;68.12;100650.05;1726467;82;21048;-67
2022/12/08 06:12:36;;;;;;;15.25;10.00;;;;;;;4.46;68.14;100655.20;1717702;81;21229;-67
2022/12/08 06:15:04;;;;;;;16.48;9.60;;;;;;;4.51;68.03;100660.36;1742287;81;21055;-70
2022/12/08 06:17:31;;;;;;;13.95;8.78;;;;;;;4.48;67.84;100668.75;1719694;82;21055;-69
2022/12/08 06:19:58;;;;;;;18.15;10.90;;;;;;;4.44;67.74;100669.17;1690964;83;21024;-69
2022/12/08 06:22:24;;;;;;;14.05;10.03;;;;;;;4.43;67.68;100668.05;1724981;82;20968;-68
2022/12/08 11:05:43;;;;;;;15.10;11.40;;;;;;;4.94;73.76;100773.75;1835240;77;22432;-68
2022/12/08 11:08:10;;;;;;;16.77;11.73;;;;;;;5.00;72.72;100771.25;1793045;80;20853;-68
2022/12/08 11:10:43;;;;;;;16.70;11.75;;;;;;;5.00;72.08;100768.61;1764500;81;21137;-69
2022/12/08 11:13:23;;;;;;;17.55;11.85;;;;;;;5.06;71.60;100773.85;1777445;80;21010;-69
2022/12/08 11:15:49;;;;;;;16.12;11.48;;;;;;;5.19;71.27;100771.63;1822150;78;21497;-68
2022/12/08 11:18:32;;;;;;;17.10;11.65;;;;;;;5.25;70.70;100768.11;1832958;78;21503;-68
2022/12/08 11:21:06;;;;;;;16.65;11.50;;;;;;;5.30;70.17;100766.16;1804894;78;21010;-68
2022/12/08 11:23:35;;;;;;;18.05;12.85;;;;;;;5.38;69.75;100769.32;1832569;78;21818;-68
2022/12/08 11:26:13;;;;;;;17.55;12.85;;;;;;;5.49;69.24;100763.02;1833047;78;20977;-68
2022/12/08 11:28:39;;;;;;;17.70;11.97;;;;;;;5.64;68.53;100770.12;1775940;78;20993;-68
2022/12/08 11:31:21;;;;;;;18.75;12.25;;;;;;;5.68;68.02;100769.97;1755935;81;21023;-68
2022/12/08 11:33:48;;;;;;;17.17;11.73;;;;;;;5.66;67.56;100770.72;1770249;81;21507;-68
2022/12/08 11:36:15;;;;;;;20.50;12.13;;;;;;;5.44;67.77;100759.70;1770545;81;21101;-68
2022/12/08 11:38:45;;;;;;;16.65;11.40;;;;;;;5.61;67.18;100763.41;1770054;81;20989;-68
2022/12/08 11:41:23;;;;;;;17.15;12.40;;;;;;;5.62;66.81;100757.59;1770219;81;21053;-68
2022/12/08 11:44:27;;;;;;;18.60;12.73;;;;;;;5.60;66.46;100751.72;1770143;80;21462;-69
2022/12/08 11:46:58;;;;;;;17.42;11.95;;;;;;;5.51;66.70;100750.38;1770422;80;20955;-68
2022/12/08 11:49:35;;;;;;;;;;;;;;;5.63;66.26;100747.30;1800459;79;22069;-68
2022/12/08 11:52:24;;;;;;;17.90;11.55;;;;;;;5.66;65.90;100748.19;1786633;79;20217;-67
2022/12/08 11:55:13;;;;;;;17.60;11.85;;;;;;;5.65;65.73;100743.91;1748038;80;21028;-68
2022/12/08 11:57:40;;;;;;;16.30;11.08;;;;;;;5.68;65.55;100742.14;1770423;81;21050;-68
2022/12/08 12:00:11;;;;;;;16.60;10.70;;;;;;;5.65;65.31;100741.25;1769945;80;21054;-69
2022/12/08 12:02:41;;;;;;;16.82;11.50;;;;;;;5.58;65.12;100739.19;1772397;79;26534;-68
2022/12/08 12:05:11;;;;;;;16.90;12.15;;;;;;;5.52;65.03;100740.87;1801409;79;21039;-68
2022/12/08 12:08:06;;;;;;;18.37;11.45;;;;;;;5.51;64.93;100747.72;1801371;79;21131;-69
2022/12/08 12:12:11;;;;;;;18.37;11.95;;;;;;;5.51;64.90;100739.25;1801412;79;21434;-68
2022/12/08 12:14:01;;;;;;;17.05;11.55;;;;;;;5.48;64.93;100739.69;1798626;79;21038;-67
2022/12/08 12:16:47;;;;;;;16.42;11.18;;;;;;;5.49;64.95;100740.50;1801083;79;21430;-66
2022/12/08 12:19:16;;;;;;;17.98;11.97;;;;;;;5.38;64.83;100736.73;1799363;79;20944;-67
2022/12/08 12:21:53;;;;;;;16.87;11.50;;;;;;;5.34;64.88;100735.03;1801454;79;21552;-68
2022/12/08 12:24:24;;;;;;;16.52;11.25;;;;;;;5.33;64.91;100732.59;1792966;79;20991;-68
2022/12/08 12:27:08;;;;;;;17.67;12.03;;;;;;;5.36;64.87;100738.29;1801533;79;20967;-68
2022/12/08 12:29:36;;;;;;;17.77;13.32;;;;;;;5.38;64.87;100733.56;1800135;79;21159;-66
2022/12/08 12:32:06;;;;;;;21.23;13.28;;;;;;;5.41;64.87;100732.33;1801310;79;21576;-66
2022/12/08 12:34:51;;;;;;;19.77;13.15;;;;;;;5.44;64.86;100734.54;1801112;79;27380;-67
2022/12/08 12:37:28;;;;;;;21.12;13.45;;;;;;;5.48;64.72;100732.27;1799816;79;21501;-68
2022/12/08 12:39:59;;;;;;;18.80;12.65;;;;;;;5.50;64.65;100736.84;1798691;79;21490;-67
2022/12/08 12:42:43;;;;;;;19.65;12.50;;;;;;;5.49;64.41;100739.98;1801296;79;21209;-67
2022/12/08 12:45:19;;;;;;;20.90;13.60;;;;;;;5.48;64.34;100740.21;1799765;79;21024;-69
2022/12/08 12:47:52;;;;;;;22.70;15.10;;;;;;;5.38;64.31;100749.45;1801299;78;21085;-68
2022/12/08 12:50:42;;;;;;;18.75;12.07;;;;;;;5.35;64.31;100753.06;1800820;79;20959;-66
2022/12/08 12:53:20;;;;;;;21.77;14.38;;;;;;;5.30;64.36;100755.05;1785756;79;20995;-66
2022/12/08 12:56:02;;;;;;;21.05;13.58;;;;;;;5.17;64.38;100757.29;1800939;79;21223;-67
2022/12/08 12:58:33;;;;;;;;;;;;;;;5.16;64.53;100761.45;1804503;79;21052;-66
2022/12/08 13:01:18;;;;;;;18.45;12.33;;;;;;;5.14;64.60;100769.63;1803257;79;20089;-66
2022/12/08 13:03:51;;;;;;;17.25;11.73;;;;;;;5.14;64.65;100769.63;1801015;79;21011;-67
2022/12/08 13:06:24;;;;;;;18.15;12.73;;;;;;;5.10;64.68;100765.80;1801085;79;21051;-66
2022/12/08 13:08:53;;;;;;;17.52;11.93;;;;;;;5.07;64.63;100765.42;1801205;79;21077;-66
2022/12/08 13:11:20;;;;;;;18.65;12.55;;;;;;;5.02;64.66;100763.92;1800005;79;20988;-66
2022/12/08 13:14:02;;;;;;;18.07;12.07;;;;;;;5.03;64.72;100767.66;1800852;79;21125;-66
2022/12/08 13:16:37;;;;;;;21.62;13.65;;;;;;;5.03;64.74;100765.02;1801698;79;21043;-67
2022/12/08 13:19:05;;;;;;;20.52;13.93;;;;;;;5.05;64.65;100763.49;1801307;79;21042;-67
2022/12/08 13:21:37;;;;;;;21.75;13.48;;;;;;;5.00;64.67;100766.80;1801220;79;21186;-67
2022/12/08 13:24:18;;;;;;;20.00;12.65;;;;;;;4.98;64.63;100764.06;1801034;79;21503;-68
2022/12/08 13:26:50;;;;;;;21.52;13.93;;;;;;;4.92;64.60;100768.36;1800442;79;21403;-68
2022/12/08 13:29:27;;;;;;;21.52;14.35;;;;;;;4.75;64.61;100761.45;1801115;79;20959;-68
2022/12/08 13:31:58;;;;;;;21.10;13.38;;;;;;;4.73;64.91;100766.14;1801201;79;21085;-68
2022/12/08 13:34:49;;;;;;;20.60;13.38;;;;;;;4.72;65.07;100764.52;1800586;79;21071;-67
2022/12/08 13:37:35;;;;;;;16.62;9.93;;;;;;;4.72;65.20;100765.04;1801282;79;21042;-66
2022/12/08 13:40:13;;;;;;;21.30;12.60;;;;;;;4.69;65.22;100765.75;1800406;79;21540;-66
2022/12/08 13:42:48;;;;;;;18.92;12.58;;;;;;;4.67;65.26;100772.27;1801255;79;20983;-67
2022/12/08 13:45:24;;;;;;;19.17;12.50;;;;;;;4.65;65.27;100774.34;1799641;78;21102;-67
2022/12/08 13:48:20;;;;;;;19.50;12.68;;;;;;;4.64;65.40;100772.21;1801117;79;21151;-67
2022/12/08 13:50:58;;;;;;;18.40;12.20;;;;;;;4.67;65.48;100772.27;1800904;79;20988;-66
2022/12/08 13:53:31;;;;;;;20.45;13.40;;;;;;;4.70;65.55;100773.17;1801152;79;21004;-68
2022/12/08 13:55:58;;;;;;;20.95;12.85;;;;;;;4.69;65.52;100767.59;1801097;79;20960;-67
2022/12/08 13:58:34;;;;;;;20.52;13.25;;;;;;;4.73;65.47;100774.59;1800996;79;21015;-68
2022/12/08 14:01:20;;;;;;;22.82;14.73;;;;;;;4.74;65.50;100774.88;1788104;79;20943;-67
2022/12/08 14:03:57;;;;;;;21.80;14.40;;;;;;;4.79;65.51;100777.20;1759111;80;21174;-67
2022/12/08 18:49:49;;;;;;;14.93;9.70;;;;;;;3.23;83.61;100749.56;1781621;79;22772;-80
2022/12/08 18:52:16;;;;;;;15.68;10.35;;;;;;;3.32;82.71;100760.19;1792049;79;20904;-80
2022/12/08 18:54:42;;;;;;;15.50;10.18;;;;;;;3.37;82.03;100752.48;1784995;80;21117;-81
2022/12/08 18:57:09;;;;;;;15.35;10.20;;;;;;;3.47;81.59;100750.75;1774802;79;20908;-80
2022/12/08 18:59:36;;;;;;;18.12;11.90;;;;;;;3.60;81.06;100743.32;1799337;79;20959;-81
2022/12/08 19:02:02;;;;;;;17.32;11.10;;;;;;;3.68;80.48;100737.29;1745104;80;21004;-81
2022/12/08 19:04:29;;;;;;;17.40;10.58;;;;;;;3.75;79.94;100733.31;1759077;81;20888;-83
2022/12/08 19:06:56;;;;;;;17.40;10.65;;;;;;;3.71;79.15;100726.82;1799515;79;21620;-80
2022/12/08 19:09:25;;;;;;;16.12;10.00;;;;;;;3.64;78.59;100726.03;1776894;80;21044;-81
2022/12/08 19:11:51;;;;;;;17.85;12.10;;;;;;;3.60;78.24;100719.55;1759165;81;20946;-81
2022/12/08 19:14:18;;;;;;;15.38;10.55;;;;;;;3.52;77.90;100721.39;1759585;81;20961;-82
2022/12/08 19:16:44;;;;;;;18.07;11.68;;;;;;;3.49;77.76;100725.77;1759637;81;21013;-80
2022/12/08 19:19:11;;;;;;;19.20;11.90;;;;;;;3.49;77.48;100720.48;1759607;81;21253;-82
2022/12/08 19:21:38;;;;;;;19.37;12.80;;;;;;;3.49;77.27;100717.84;1760553;81;21060;-80
2022/12/08 19:24:06;;;;;;;20.55;12.80;;;;;;;3.49;77.11;100719.67;1759477;81;21520;-81
2022/12/08 19:26:33;;;;;;;17.98;11.83;;;;;;;3.54;77.03;100715.89;1759520;81;21017;-82
2022/12/08 19:28:59;;;;;;;23.02;13.43;;;;;;;3.58;76.73;100714.45;1760324;80;21000;-81
2022/12/08 19:31:26;;;;;;;20.12;12.88;;;;;;;3.60;76.67;100709.79;1759647;81;21832;-81
2022/12/08 19:33:53;;;;;;;18.17;11.90;;;;;;;3.64;76.43;100711.50;1766174;80;20992;-79
2022/12/08 19:36:21;;;;;;;19.95;13.08;;;;;;;3.61;76.05;100709.28;1759750;81;20960;-79
2022/12/08 19:47:11;;;;;;;19.17;14.07;;;;;;;3.59;75.60;100727.98;1758125;80;20882;-81
2022/12/08 19:49:37;;;;;;;23.90;16.57;;;;;;;3.55;75.33;100728.58;1787967;78;21012;-80
2022/12/08 19:52:04;;;;;;;24.27;16.00;;;;;;;3.58;75.30;100727.66;1789003;78;21071;-80
2022/12/08 19:54:31;;;;;;;22.45;14.83;;;;;;;3.60;75.10;100720.36;1787438;80;21006;-80
2022/12/08 19:56:58;;;;;;;20.80;13.38;;;;;;;3.57;74.97;100721.28;1787948;80;21055;-81
2022/12/08 19:59:25;;;;;;;20.02;13.25;;;;;;;3.57;74.81;100722.60;1782479;80;21098;-80
2022/12/08 20:01:54;;;;;;;18.00;11.95;;;;;;;3.53;74.57;100723.52;1788134;80;21042;-81
2022/12/08 20:04:22;;;;;;;17.70;12.13;;;;;;;3.48;74.40;100716.20;1788094;78;21078;-82
2022/12/08 20:06:49;;;;;;;21.65;13.68;;;;;;;3.43;74.30;100721.30;1782690;80;21431;-80
2022/12/08 20:09:16;;;;;;;20.52;13.35;;;;;;;3.42;74.24;100721.02;1787527;78;21138;-81
2022/12/08 20:11:43;;;;;;;21.37;13.48;;;;;;;3.47;74.28;100724.34;1787721;80;20940;-80
2022/12/08 20:14:10;;;;;;;20.43;13.48;;;;;;;3.52;74.15;100720.56;1782395;80;21027;-81
2022/12/08 20:16:40;;;;;;;22.15;13.40;;;;;;;3.56;74.04;100725.75;1792601;78;21036;-81
2022/12/08 20:19:06;;;;;;;20.23;13.40;;;;;;;3.62;74.03;100729.38;1805875;79;20984;-80
2022/12/08 20:21:33;;;;;;;19.35;13.10;;;;;;;3.71;73.96;100724.18;1789998;78;21142;-79
2022/12/08 20:23:59;;;;;;;20.88;12.98;;;;;;;3.74;73.79;100724.58;1780943;80;20920;-81
2022/12/08 20:26:27;;;;;;;20.20;14.00;;;;;;;3.76;73.60;100729.67;1794798;78;20972;-79
2022/12/08 20:28:53;;;;;;;20.43;13.95;;;;;;;3.80;73.51;100730.87;1816166;77;21012;-80
2022/12/08 20:31:27;;;;;;;20.47;13.63;;;;;;;3.84;73.32;100721.50;1569576;77;10000182;-80
2022/12/08 20:33:54;;;;;;;19.37;13.43;;;;;;;3.85;73.16;100723.14;1817777;78;21081;-78
2022/12/08 20:36:20;;;;;;;18.82;12.33;;;;;;;3.83;72.89;100729.65;1817599;78;21084;-79
2022/12/08 20:38:50;;;;;;;19.87;12.65;;;;;;;3.82;72.79;100735.93;1797115;79;21545;-80
2022/12/08 20:41:18;;;;;;;20.35;13.55;;;;;;;3.80;72.59;100742.76;1803587;78;20995;-80
2022/12/08 20:43:45;;;;;;;19.40;12.28;;;;;;;3.76;72.44;100741.56;1804848;78;21540;-78
2022/12/08 20:46:14;;;;;;;18.42;12.53;;;;;;;3.73;72.35;100744.61;1813206;77;20986;-80
2022/12/08 20:48:42;;;;;;;16.67;11.45;;;;;;;3.69;72.23;100746.05;1790589;78;21085;-79
2022/12/08 20:51:13;;;;;;;20.37;12.90;;;;;;;3.65;72.05;100754.06;1790339;78;21092;-79
2022/12/08 20:53:40;;;;;;;18.57;12.33;;;;;;;3.60;71.87;100751.24;1804580;77;20980;-80
2022/12/08 20:56:06;;;;;;;22.20;13.33;;;;;;;3.59;71.81;100757.04;1440110;77;10000447;-79
2022/12/08 20:58:33;;;;;;;17.90;12.20;;;;;;;3.58;71.71;100758.03;1717821;77;81191;-74
2022/12/08 21:00:59;;;;;;;20.17;12.57;;;;;;;3.56;71.57;100763.24;1550042;84;10000292;-74
2022/12/08 21:03:26;;;;;;;18.73;12.35;;;;;;;3.48;71.23;100755.00;1671465;85;21059;-74
2022/12/08 21:05:53;;;;;;;20.57;13.20;;;;;;;3.41;71.05;100752.37;1662265;86;21007;-73
2022/12/08 21:08:23;;;;;;;21.23;13.00;;;;;;;3.37;71.10;100749.84;1670092;84;21003;-74
2022/12/08 21:10:54;;;;;;;23.38;13.80;;;;;;;3.39;71.12;100742.54;1624158;86;21099;-74
2022/12/08 21:13:21;;;;;;;22.35;13.08;;;;;;;3.36;70.96;100746.10;1671877;85;21031;-73
2022/12/08 21:15:47;;;;;;;23.47;14.50;;;;;;;3.35;70.93;100738.66;1662241;86;21005;-74
2022/12/08 21:18:15;;;;;;;27.60;15.58;;;;;;;3.31;70.77;100736.14;1669550;85;21154;-74